createdAt,value
2018-12-15T00:00:36.877Z,1.34
2018-12-15T00:01:36.856Z,1.41
2018-12-15T00:02:36.830Z,1.30
2018-12-15T00:03:36.809Z,1.36
2018-12-15T00:04:36.789Z,1.41
2018-12-15T00:05:36.753Z,1.33
2018-12-15T00:06:36.734Z,1.27
2018-12-15T00:07:36.723Z,1.37
2018-12-15T00:08:36.691Z,1.33
2018-12-15T00:09:36.663Z,1.33
2018-12-15T00:10:36.639Z,1.24
2018-12-15T00:11:36.625Z,1.27
2018-12-15T00:12:36.591Z,1.30
2018-12-15T00:13:36.569Z,1.26
2018-12-15T00:14:36.542Z,1.26
2018-12-15T00:15:36.518Z,1.40
2018-12-15T00:16:36.496Z,1.37
2018-12-15T00:17:36.472Z,1.34
2018-12-15T00:18:36.445Z,1.36
2018-12-15T00:19:36.426Z,1.30
2018-12-15T00:20:36.398Z,1.23
2018-12-15T00:21:36.381Z,1.29
2018-12-15T00:22:36.356Z,1.30
2018-12-15T00:23:36.333Z,1.34
2018-12-15T00:24:36.303Z,1.42
2018-12-15T00:25:36.277Z,1.32
2018-12-15T00:26:36.261Z,1.26
2018-12-15T00:27:36.243Z,1.33
2018-12-15T00:28:36.208Z,1.32
2018-12-15T00:29:36.183Z,1.26
2018-12-15T00:30:36.162Z,1.23
2018-12-15T00:31:36.137Z,1.29
2018-12-15T00:32:36.126Z,1.24
2018-12-15T00:33:36.089Z,1.33
2018-12-15T00:34:36.069Z,1.22
2018-12-15T00:35:36.041Z,1.29
2018-12-15T00:36:36.020Z,1.26
2018-12-15T00:37:35.993Z,1.33
2018-12-15T00:38:35.967Z,1.27
2018-12-15T00:39:35.945Z,1.32
2018-12-15T00:40:35.921Z,1.26
2018-12-15T00:41:35.897Z,1.24
2018-12-15T00:42:35.883Z,1.26
2018-12-15T00:43:35.851Z,1.27
2018-12-15T00:44:35.829Z,1.26
2018-12-15T00:45:35.807Z,1.26
2018-12-15T00:46:35.782Z,1.27
2018-12-15T00:47:35.753Z,1.23
2018-12-15T00:48:35.741Z,1.26
2018-12-15T00:49:35.707Z,1.27
2018-12-15T00:50:35.687Z,1.18
2018-12-15T00:51:35.659Z,1.29
2018-12-15T00:52:35.632Z,1.30
2018-12-15T00:53:35.609Z,1.26
2018-12-15T00:54:35.593Z,1.34
2018-12-15T00:55:35.564Z,1.26
2018-12-15T00:56:35.541Z,1.27
2018-12-15T00:57:35.518Z,1.27
2018-12-15T00:58:35.494Z,1.30
2018-12-15T00:59:35.469Z,1.26
2018-12-15T01:00:35.443Z,1.30
2018-12-15T01:01:35.421Z,1.34
2018-12-15T01:02:35.397Z,1.30
2018-12-15T01:03:35.372Z,1.33
2018-12-15T01:04:35.347Z,1.29
2018-12-15T01:05:35.326Z,1.26
2018-12-15T01:06:35.298Z,1.26
2018-12-15T01:07:35.345Z,1.32
2018-12-15T01:08:35.251Z,1.30
2018-12-15T01:09:35.227Z,1.30
2018-12-15T01:10:35.208Z,1.27
2018-12-15T01:11:35.181Z,1.26
2018-12-15T01:12:35.156Z,1.34
2018-12-15T01:13:35.132Z,1.30
2018-12-15T01:14:35.106Z,1.30
2018-12-15T01:15:35.086Z,1.29
2018-12-15T01:16:35.060Z,1.24
2018-12-15T01:17:35.038Z,1.27
2018-12-15T01:18:35.014Z,1.36
2018-12-15T01:19:34.990Z,1.33
2018-12-15T01:20:34.964Z,1.32
2018-12-15T01:21:34.941Z,1.32
2018-12-15T01:22:34.915Z,1.30
2018-12-15T01:23:34.893Z,1.30
2018-12-15T01:24:34.873Z,1.40
2018-12-15T01:25:34.848Z,1.30
2018-12-15T01:26:34.824Z,1.29
2018-12-15T01:27:34.815Z,1.34
2018-12-15T01:28:34.775Z,1.37
2018-12-15T01:29:34.750Z,1.40
2018-12-15T01:30:34.728Z,1.41
2018-12-15T01:31:34.712Z,1.40
2018-12-15T01:32:34.678Z,1.40
2018-12-15T01:33:34.653Z,1.36
2018-12-15T01:34:34.632Z,1.30
2018-12-15T01:35:34.609Z,1.37
2018-12-15T01:36:34.585Z,1.37
2018-12-15T01:37:34.563Z,1.34
2018-12-15T01:38:34.537Z,1.33
2018-12-15T01:39:34.511Z,1.33
2018-12-15T01:40:34.486Z,1.33
2018-12-15T01:41:34.467Z,1.37
2018-12-15T01:42:34.444Z,1.33
2018-12-15T01:43:34.414Z,1.34
2018-12-15T01:44:34.390Z,1.37
2018-12-15T01:45:34.368Z,1.34
2018-12-15T01:46:34.341Z,1.44
2018-12-15T01:47:34.319Z,1.41
2018-12-15T01:48:34.296Z,1.41
2018-12-15T01:49:34.274Z,1.41
2018-12-15T01:50:34.248Z,1.40
2018-12-15T01:51:34.227Z,1.41
2018-12-15T01:52:34.199Z,1.48
2018-12-15T01:53:34.176Z,1.41
2018-12-15T01:54:34.156Z,1.44
2018-12-15T01:55:34.130Z,1.36
2018-12-15T01:56:34.104Z,1.36
2018-12-15T01:57:34.084Z,1.34
2018-12-15T01:58:34.069Z,1.47
2018-12-15T01:59:34.033Z,1.36
2018-12-15T02:00:34.013Z,1.42
2018-12-15T02:01:33.988Z,1.45
2018-12-15T02:02:33.960Z,1.47
2018-12-15T02:03:33.940Z,1.44
2018-12-15T02:04:33.912Z,1.34
2018-12-15T02:05:33.896Z,1.50
2018-12-15T02:06:33.866Z,1.36
2018-12-15T02:07:33.841Z,1.33
2018-12-15T02:08:33.825Z,1.47
2018-12-15T02:09:33.797Z,1.44
2018-12-15T02:10:33.774Z,1.36
2018-12-15T02:11:33.803Z,1.47
2018-12-15T02:12:33.720Z,1.41
2018-12-15T02:13:33.698Z,1.44
2018-12-15T02:14:33.677Z,1.40
2018-12-15T02:15:33.655Z,1.44
2018-12-15T02:16:33.627Z,1.42
2018-12-15T02:17:33.901Z,1.44
2018-12-15T02:18:33.586Z,1.44
2018-12-15T02:19:33.559Z,1.41
2018-12-15T02:20:33.535Z,1.41
2018-12-15T02:21:33.511Z,1.41
2018-12-15T02:22:33.489Z,1.41
2018-12-15T02:23:33.463Z,1.47
2018-12-15T02:24:33.437Z,1.47
2018-12-15T02:25:33.413Z,1.37
2018-12-15T02:26:33.395Z,1.47
2018-12-15T02:27:33.369Z,1.33
2018-12-15T02:28:33.346Z,1.47
2018-12-15T02:29:33.321Z,1.34
2018-12-15T02:30:33.295Z,1.48
2018-12-15T02:31:33.274Z,1.47
2018-12-15T02:32:33.249Z,1.41
2018-12-15T02:33:33.220Z,1.47
2018-12-15T02:34:33.199Z,1.44
2018-12-15T02:35:33.186Z,1.50
2018-12-15T02:36:33.149Z,1.50
2018-12-15T02:37:33.128Z,1.51
2018-12-15T02:38:33.106Z,1.52
2018-12-15T02:39:33.081Z,1.52
2018-12-15T02:40:33.061Z,1.45
2018-12-15T02:41:33.037Z,1.50
2018-12-15T02:42:33.011Z,1.55
2018-12-15T02:43:32.991Z,1.55
2018-12-15T02:44:32.964Z,1.52
2018-12-15T02:45:32.942Z,1.63
2018-12-15T02:46:32.919Z,1.73
2018-12-15T02:47:32.896Z,1.69
2018-12-15T02:48:32.873Z,1.66
2018-12-15T02:49:32.908Z,1.63
2018-12-15T02:50:32.821Z,1.68
2018-12-15T02:51:32.799Z,1.73
2018-12-15T02:52:32.785Z,1.59
2018-12-15T02:53:32.751Z,1.58
2018-12-15T02:54:32.727Z,1.54
2018-12-15T02:55:32.701Z,1.73
2018-12-15T02:56:32.680Z,1.72
2018-12-15T02:57:32.657Z,1.55
2018-12-15T02:58:32.639Z,1.66
2018-12-15T02:59:32.605Z,1.69
2018-12-15T03:00:32.585Z,1.51
2018-12-15T03:01:32.563Z,1.55
2018-12-15T03:02:32.542Z,1.50
2018-12-15T03:03:32.521Z,1.51
2018-12-15T03:04:32.488Z,1.62
2018-12-15T03:05:32.463Z,1.59
2018-12-15T03:06:32.439Z,1.51
2018-12-15T03:07:32.421Z,1.54
2018-12-15T03:08:32.391Z,1.45
2018-12-15T03:09:32.372Z,1.44
2018-12-15T03:10:32.345Z,1.50
2018-12-15T03:11:32.325Z,1.50
2018-12-15T03:12:32.300Z,1.48
2018-12-15T03:13:32.272Z,1.54
2018-12-15T03:14:32.255Z,1.60
2018-12-15T03:15:32.228Z,1.59
2018-12-15T03:16:32.209Z,1.60
2018-12-15T03:17:32.196Z,1.63
2018-12-15T03:18:32.156Z,1.66
2018-12-15T03:19:32.137Z,1.62
2018-12-15T03:20:32.111Z,1.73
2018-12-15T03:21:32.085Z,1.69
2018-12-15T03:22:32.062Z,1.72
2018-12-15T03:23:32.038Z,1.60
2018-12-15T03:24:32.012Z,1.73
2018-12-15T03:25:31.986Z,1.69
2018-12-15T03:26:31.968Z,1.73
2018-12-15T03:27:31.946Z,1.69
2018-12-15T03:28:31.916Z,1.70
2018-12-15T03:29:31.892Z,1.68
2018-12-15T03:30:31.870Z,1.70
2018-12-15T03:31:34.418Z,1.65
2018-12-15T03:32:31.822Z,1.69
2018-12-15T03:33:31.800Z,1.63
2018-12-15T03:34:31.777Z,1.70
2018-12-15T03:35:31.750Z,1.70
2018-12-15T03:36:31.731Z,1.68
2018-12-15T03:37:31.702Z,1.70
2018-12-15T03:38:31.680Z,1.79
2018-12-15T03:39:31.654Z,1.80
2018-12-15T03:40:31.631Z,1.80
2018-12-15T03:41:31.612Z,1.76
2018-12-15T03:42:31.588Z,1.70
2018-12-15T03:43:31.560Z,1.76
2018-12-15T03:44:31.542Z,1.72
2018-12-15T03:45:31.516Z,1.77
2018-12-15T03:46:31.490Z,1.81
2018-12-15T03:47:31.466Z,1.80
2018-12-15T03:48:31.438Z,1.87
2018-12-15T03:49:31.421Z,1.84
2018-12-15T03:50:31.402Z,1.81
2018-12-15T03:51:31.376Z,1.87
2018-12-15T03:52:31.349Z,1.88
2018-12-15T03:53:31.323Z,1.88
2018-12-15T03:54:31.310Z,1.88
2018-12-15T03:55:31.286Z,1.83
2018-12-15T03:56:31.253Z,1.83
2018-12-15T03:57:31.231Z,1.86
2018-12-15T03:58:31.209Z,1.87
2018-12-15T03:59:31.182Z,1.88
2018-12-15T04:00:31.161Z,1.87
2018-12-15T04:01:31.139Z,1.81
2018-12-15T04:02:31.112Z,1.80
2018-12-15T04:03:31.090Z,1.90
2018-12-15T04:04:31.064Z,1.87
2018-12-15T04:05:31.040Z,1.86
2018-12-15T04:06:31.017Z,1.95
2018-12-15T04:07:30.994Z,1.83
2018-12-15T04:08:30.973Z,1.86
2018-12-15T04:09:30.944Z,1.88
2018-12-15T04:10:30.939Z,1.91
2018-12-15T04:11:30.904Z,1.86
2018-12-15T04:12:30.876Z,1.84
2018-12-15T04:13:30.850Z,1.86
2018-12-15T04:14:30.828Z,1.80
2018-12-15T04:15:30.800Z,1.83
2018-12-15T04:16:30.778Z,1.87
2018-12-15T04:17:30.758Z,1.86
2018-12-15T04:18:30.737Z,1.69
2018-12-15T04:19:30.713Z,1.86
2018-12-15T04:20:30.690Z,1.77
2018-12-15T04:21:30.665Z,1.86
2018-12-15T04:22:30.638Z,1.84
2018-12-15T04:23:30.614Z,1.88
2018-12-15T04:24:30.590Z,1.81
2018-12-15T04:25:30.569Z,1.87
2018-12-15T04:26:30.543Z,1.81
2018-12-15T04:27:30.520Z,1.81
2018-12-15T04:28:30.497Z,1.84
2018-12-15T04:29:30.472Z,1.81
2018-12-15T04:30:30.448Z,1.83
2018-12-15T04:31:30.426Z,1.86
2018-12-15T04:32:30.403Z,1.86
2018-12-15T04:33:30.381Z,1.86
2018-12-15T04:34:30.357Z,1.79
2018-12-15T04:35:30.332Z,1.77
2018-12-15T04:36:30.307Z,1.80
2018-12-15T04:37:30.284Z,1.73
2018-12-15T04:38:30.262Z,1.72
2018-12-15T04:39:30.236Z,1.79
2018-12-15T04:40:30.211Z,1.80
2018-12-15T04:41:30.190Z,1.79
2018-12-15T04:42:30.168Z,1.87
2018-12-15T04:43:30.141Z,1.79
2018-12-15T04:44:30.120Z,1.81
2018-12-15T04:45:30.097Z,1.80
2018-12-15T04:46:30.078Z,1.83
2018-12-15T04:47:30.053Z,1.81
2018-12-15T04:48:30.022Z,1.88
2018-12-15T04:49:30.003Z,1.84
2018-12-15T04:50:29.978Z,1.91
2018-12-15T04:51:29.952Z,1.90
2018-12-15T04:52:29.930Z,1.90
2018-12-15T04:53:29.906Z,1.81
2018-12-15T04:54:29.883Z,1.86
2018-12-15T04:55:29.862Z,1.88
2018-12-15T04:56:29.836Z,1.91
2018-12-15T04:57:29.814Z,1.99
2018-12-15T04:58:29.793Z,1.90
2018-12-15T04:59:29.769Z,1.95
2018-12-15T05:00:29.738Z,1.83
2018-12-15T05:01:29.720Z,1.98
2018-12-15T05:02:29.697Z,1.84
2018-12-15T05:03:29.673Z,1.88
2018-12-15T05:04:29.652Z,1.86
2018-12-15T05:05:29.621Z,1.86
2018-12-15T05:06:29.599Z,1.93
2018-12-15T05:07:29.576Z,1.98
2018-12-15T05:08:29.553Z,1.84
2018-12-15T05:09:29.528Z,1.84
2018-12-15T05:10:29.502Z,1.88
2018-12-15T05:11:29.482Z,1.91
2018-12-15T05:12:29.457Z,1.93
2018-12-15T05:13:29.433Z,1.80
2018-12-15T05:14:29.411Z,1.84
2018-12-15T05:15:29.387Z,1.87
2018-12-15T05:16:29.389Z,1.88
2018-12-15T05:17:29.341Z,1.93
2018-12-15T05:18:29.316Z,1.95
2018-12-15T05:19:29.295Z,1.88
2018-12-15T05:20:29.275Z,1.87
2018-12-15T05:21:29.247Z,1.84
2018-12-15T05:22:29.219Z,1.84
2018-12-15T05:23:29.197Z,1.84
2018-12-15T05:24:29.176Z,1.87
2018-12-15T05:25:29.153Z,1.86
2018-12-15T05:26:29.129Z,1.80
2018-12-15T05:27:29.107Z,1.81
2018-12-15T05:28:29.081Z,1.80
2018-12-15T05:29:29.054Z,1.81
2018-12-15T05:30:29.040Z,1.76
2018-12-15T05:31:29.009Z,1.72
2018-12-15T05:32:28.989Z,1.79
2018-12-15T05:33:28.965Z,1.76
2018-12-15T05:34:28.939Z,1.83
2018-12-15T05:35:28.917Z,1.80
2018-12-15T05:36:28.902Z,1.81
2018-12-15T05:37:28.872Z,1.80
2018-12-15T05:38:28.844Z,1.81
2018-12-15T05:39:28.827Z,1.83
2018-12-15T05:40:28.795Z,1.79
2018-12-15T05:41:28.778Z,1.80
2018-12-15T05:42:28.751Z,1.76
2018-12-15T05:43:28.729Z,1.70
2018-12-15T05:44:28.704Z,1.72
2018-12-15T05:45:28.677Z,1.77
2018-12-15T05:46:28.657Z,1.72
2018-12-15T05:47:28.633Z,1.73
2018-12-15T05:48:28.611Z,1.72
2018-12-15T05:49:28.585Z,1.70
2018-12-15T05:50:28.559Z,1.80
2018-12-15T05:51:28.541Z,1.81
2018-12-15T05:52:28.512Z,1.84
2018-12-15T05:53:28.490Z,1.84
2018-12-15T05:54:28.469Z,1.83
2018-12-15T05:55:28.444Z,1.77
2018-12-15T05:56:28.423Z,1.79
2018-12-15T05:57:28.397Z,1.83
2018-12-15T05:58:28.370Z,1.77
2018-12-15T05:59:28.351Z,1.76
2018-12-15T06:00:28.329Z,1.76
2018-12-15T06:01:28.301Z,1.73
2018-12-15T06:02:28.290Z,1.73
2018-12-15T06:03:28.261Z,1.73
2018-12-15T06:04:28.232Z,1.70
2018-12-15T06:05:28.208Z,1.69
2018-12-15T06:06:28.186Z,1.76
2018-12-15T06:07:28.162Z,1.77
2018-12-15T06:08:28.137Z,1.77
2018-12-15T06:09:28.111Z,1.76
2018-12-15T06:10:28.092Z,1.81
2018-12-15T06:11:28.066Z,1.87
2018-12-15T06:12:28.041Z,1.84
2018-12-15T06:13:28.020Z,1.83
2018-12-15T06:14:28.000Z,1.87
2018-12-15T06:15:27.972Z,1.84
2018-12-15T06:16:27.948Z,1.80
2018-12-15T06:17:27.922Z,1.83
2018-12-15T06:18:31.575Z,1.84
2018-12-15T06:19:27.880Z,1.84
2018-12-15T06:20:27.851Z,1.83
2018-12-15T06:21:27.834Z,1.79
2018-12-15T06:22:27.805Z,1.80
2018-12-15T06:23:27.783Z,1.88
2018-12-15T06:24:27.758Z,1.81
2018-12-15T06:25:27.745Z,1.81
2018-12-15T06:26:27.714Z,1.81
2018-12-15T06:27:27.687Z,1.88
2018-12-15T06:28:27.659Z,1.83
2018-12-15T06:29:27.640Z,1.86
2018-12-15T06:30:27.620Z,1.77
2018-12-15T06:31:27.598Z,1.65
2018-12-15T06:32:27.567Z,1.72
2018-12-15T06:33:27.545Z,1.70
2018-12-15T06:34:27.525Z,1.76
2018-12-15T06:35:27.505Z,1.77
2018-12-15T06:36:27.475Z,1.86
2018-12-15T06:37:27.453Z,1.79
2018-12-15T06:38:27.425Z,1.83
2018-12-15T06:39:27.406Z,1.79
2018-12-15T06:40:27.383Z,1.81
2018-12-15T06:41:27.357Z,1.86
2018-12-15T06:42:27.335Z,1.87
2018-12-15T06:43:27.311Z,1.84
2018-12-15T06:44:27.291Z,1.84
2018-12-15T06:45:27.261Z,1.83
2018-12-15T06:46:27.238Z,1.83
2018-12-15T06:47:27.219Z,1.84
2018-12-15T06:48:27.191Z,1.80
2018-12-15T06:49:27.173Z,1.80
2018-12-15T06:50:27.347Z,1.83
2018-12-15T06:51:27.119Z,1.83
2018-12-15T06:52:27.097Z,1.87
2018-12-15T06:53:27.075Z,1.88
2018-12-15T06:54:27.049Z,1.87
2018-12-15T06:55:27.032Z,1.84
2018-12-15T06:56:27.005Z,1.80
2018-12-15T06:57:26.980Z,1.84
2018-12-15T06:58:26.955Z,1.80
2018-12-15T06:59:26.932Z,1.77
2018-12-15T07:00:26.910Z,1.73
2018-12-15T07:01:26.896Z,1.68
2018-12-15T07:02:26.861Z,1.59
2018-12-15T07:03:26.841Z,1.68
2018-12-15T07:04:26.812Z,1.63
2018-12-15T07:05:26.792Z,1.68
2018-12-15T07:06:26.765Z,1.70
2018-12-15T07:07:26.742Z,1.70
2018-12-15T07:08:26.720Z,1.69
2018-12-15T07:09:26.694Z,1.62
2018-12-15T07:10:26.681Z,1.70
2018-12-15T07:11:26.648Z,1.68
2018-12-15T07:12:26.626Z,1.73
2018-12-15T07:13:26.599Z,1.66
2018-12-15T07:14:26.584Z,1.66
2018-12-15T07:15:26.558Z,1.69
2018-12-15T07:16:26.534Z,1.76
2018-12-15T07:17:26.508Z,1.76
2018-12-15T07:18:26.488Z,1.72
2018-12-15T07:19:26.461Z,1.68
2018-12-15T07:20:26.438Z,1.68
2018-12-15T07:21:26.413Z,1.72
2018-12-15T07:22:26.390Z,1.73
2018-12-15T07:23:26.370Z,1.70
2018-12-15T07:24:26.340Z,1.73
2018-12-15T07:25:26.319Z,1.73
2018-12-15T07:26:26.296Z,1.77
2018-12-15T07:27:26.275Z,1.77
2018-12-15T07:28:26.248Z,1.76
2018-12-15T07:29:26.219Z,1.80
2018-12-15T07:30:26.200Z,1.83
2018-12-15T07:31:26.183Z,1.79
2018-12-15T07:32:26.152Z,1.83
2018-12-15T07:33:26.134Z,1.81
2018-12-15T07:34:26.108Z,1.87
2018-12-15T07:35:26.082Z,1.87
2018-12-15T07:36:26.057Z,1.86
2018-12-15T07:37:26.039Z,1.91
2018-12-15T07:38:26.018Z,1.90
2018-12-15T07:39:25.988Z,1.95
2018-12-15T07:40:25.965Z,1.84
2018-12-15T07:41:25.956Z,1.99
2018-12-15T07:42:25.918Z,2.00
2018-12-15T07:43:25.898Z,2.00
2018-12-15T07:44:25.879Z,2.06
2018-12-15T07:45:25.853Z,1.99
2018-12-15T07:46:25.824Z,2.00
2018-12-15T07:47:25.810Z,2.06
2018-12-15T07:48:25.780Z,1.98
2018-12-15T07:49:25.752Z,2.02
2018-12-15T07:50:25.733Z,2.02
2018-12-15T07:51:25.706Z,2.02
2018-12-15T07:52:25.683Z,1.93
2018-12-15T07:53:25.659Z,1.98
2018-12-15T07:54:25.637Z,1.98
2018-12-15T07:55:25.610Z,1.99
2018-12-15T07:56:25.591Z,2.03
2018-12-15T07:57:25.568Z,2.03
2018-12-15T07:58:25.539Z,2.09
2018-12-15T07:59:25.516Z,2.12
2018-12-15T08:00:25.523Z,2.09
2018-12-15T08:01:25.467Z,2.03
2018-12-15T08:02:25.450Z,2.23
2018-12-15T08:03:25.424Z,2.12
2018-12-15T08:04:25.401Z,2.06
2018-12-15T08:05:25.375Z,2.12
2018-12-15T08:06:25.357Z,2.25
2018-12-15T08:07:25.330Z,2.21
2018-12-15T08:08:25.310Z,2.27
2018-12-15T08:09:25.289Z,2.25
2018-12-15T08:10:25.259Z,2.31
2018-12-15T08:11:25.246Z,2.24
2018-12-15T08:12:25.211Z,2.24
2018-12-15T08:13:25.191Z,2.21
2018-12-15T08:14:25.170Z,2.18
2018-12-15T08:15:25.143Z,2.17
2018-12-15T08:16:25.121Z,2.20
2018-12-15T08:17:25.094Z,2.09
2018-12-15T08:18:25.080Z,2.03
2018-12-15T08:19:25.062Z,2.06
2018-12-15T08:20:25.027Z,2.12
2018-12-15T08:21:25.004Z,1.99
2018-12-15T08:22:26.253Z,2.00
2018-12-15T08:23:24.956Z,1.99
2018-12-15T08:24:24.930Z,2.00
2018-12-15T08:25:24.903Z,2.02
2018-12-15T08:26:24.883Z,1.99
2018-12-15T08:27:24.863Z,2.00
2018-12-15T08:28:24.836Z,2.16
2018-12-15T08:29:24.814Z,2.00
2018-12-15T08:30:24.791Z,2.10
2018-12-15T08:31:24.769Z,2.07
2018-12-15T08:32:24.744Z,2.16
2018-12-15T08:33:24.722Z,2.23
2018-12-15T08:34:24.694Z,2.21
2018-12-15T08:35:24.671Z,2.23
2018-12-15T08:36:24.649Z,2.24
2018-12-15T08:37:24.626Z,2.25
2018-12-15T08:38:24.609Z,2.25
2018-12-15T08:39:24.577Z,2.38
2018-12-15T08:40:24.554Z,2.31
2018-12-15T08:41:24.536Z,2.30
2018-12-15T08:42:24.507Z,2.38
2018-12-15T08:43:24.489Z,2.45
2018-12-15T08:44:24.461Z,2.43
2018-12-15T08:45:24.437Z,2.49
2018-12-15T08:46:24.416Z,2.49
2018-12-15T08:47:24.399Z,2.53
2018-12-15T08:48:24.368Z,2.54
2018-12-15T08:49:24.347Z,2.60
2018-12-15T08:50:24.324Z,2.60
2018-12-15T08:51:24.299Z,2.59
2018-12-15T08:52:24.274Z,2.64
2018-12-15T08:53:24.251Z,2.60
2018-12-15T08:54:24.227Z,2.61
2018-12-15T08:55:24.201Z,2.66
2018-12-15T08:56:24.179Z,2.61
2018-12-15T08:57:24.156Z,2.63
2018-12-15T08:58:24.143Z,2.63
2018-12-15T08:59:24.113Z,2.53
2018-12-15T09:00:24.087Z,2.64
2018-12-15T09:01:24.066Z,2.66
2018-12-15T09:02:24.042Z,2.63
2018-12-15T09:03:24.017Z,2.67
2018-12-15T09:04:23.996Z,2.61
2018-12-15T09:05:23.972Z,2.63
2018-12-15T09:06:23.946Z,2.54
2018-12-15T09:07:23.926Z,2.57
2018-12-15T09:08:23.906Z,2.57
2018-12-15T09:09:23.877Z,2.54
2018-12-15T09:10:23.850Z,2.56
2018-12-15T09:11:23.832Z,2.64
2018-12-15T09:12:23.810Z,2.57
2018-12-15T09:13:23.788Z,2.54
2018-12-15T09:14:23.762Z,2.56
2018-12-15T09:15:23.738Z,2.61
2018-12-15T09:16:26.679Z,2.63
2018-12-15T09:17:23.692Z,2.57
2018-12-15T09:18:23.664Z,2.69
2018-12-15T09:19:23.646Z,2.63
2018-12-15T09:20:23.623Z,2.66
2018-12-15T09:21:23.600Z,2.69
2018-12-15T09:22:23.573Z,2.61
2018-12-15T09:23:23.553Z,2.60
2018-12-15T09:24:23.528Z,2.60
2018-12-15T09:25:23.514Z,2.67
2018-12-15T09:26:23.479Z,2.64
2018-12-15T09:27:23.460Z,2.64
2018-12-15T09:28:23.442Z,2.66
2018-12-15T09:29:23.419Z,2.60
2018-12-15T09:30:23.388Z,2.61
2018-12-15T09:31:23.362Z,2.63
2018-12-15T09:32:23.341Z,2.66
2018-12-15T09:33:23.320Z,2.57
2018-12-15T09:34:23.296Z,2.63
2018-12-15T09:35:23.273Z,2.63
2018-12-15T09:36:23.249Z,2.60
2018-12-15T09:37:23.227Z,2.64
2018-12-15T09:38:23.199Z,2.64
2018-12-15T09:39:23.179Z,2.61
2018-12-15T09:40:23.156Z,2.60
2018-12-15T09:41:23.135Z,2.63
2018-12-15T09:42:23.110Z,2.61
2018-12-15T09:43:23.087Z,2.64
2018-12-15T09:44:23.065Z,2.69
2018-12-15T09:45:23.038Z,2.64
2018-12-15T09:46:23.019Z,2.71
2018-12-15T09:47:23.005Z,2.63
2018-12-15T09:48:22.965Z,2.67
2018-12-15T09:49:22.951Z,2.67
2018-12-15T09:50:22.927Z,2.54
2018-12-15T09:51:22.901Z,2.64
2018-12-15T09:52:22.873Z,2.69
2018-12-15T09:53:22.853Z,2.71
2018-12-15T09:54:22.828Z,2.63
2018-12-15T09:55:22.808Z,2.60
2018-12-15T09:56:22.785Z,2.66
2018-12-15T09:57:22.762Z,2.63
2018-12-15T09:58:22.738Z,2.74
2018-12-15T09:59:22.715Z,2.77
2018-12-15T10:00:22.693Z,2.75
2018-12-15T10:01:22.680Z,2.81
2018-12-15T10:02:22.650Z,2.85
2018-12-15T10:03:22.631Z,2.81
2018-12-15T10:04:22.604Z,2.85
2018-12-15T10:05:22.581Z,2.90
2018-12-15T10:06:22.549Z,2.85
2018-12-15T10:07:22.527Z,2.92
2018-12-15T10:08:22.508Z,2.85
2018-12-15T10:09:22.478Z,2.85
2018-12-15T10:10:22.457Z,2.89
2018-12-15T10:11:22.442Z,2.84
2018-12-15T10:12:22.417Z,2.85
2018-12-15T10:13:22.388Z,2.99
2018-12-15T10:14:22.360Z,2.87
2018-12-15T10:15:22.343Z,2.87
2018-12-15T10:16:22.317Z,2.93
2018-12-15T10:17:22.296Z,2.89
2018-12-15T10:18:22.275Z,2.85
2018-12-15T10:19:24.410Z,2.92
2018-12-15T10:20:22.226Z,2.90
2018-12-15T10:21:22.202Z,2.85
2018-12-15T10:22:22.181Z,2.85
2018-12-15T10:23:22.157Z,2.85
2018-12-15T10:24:22.129Z,2.90
2018-12-15T10:25:22.106Z,2.97
2018-12-15T10:26:22.082Z,2.95
2018-12-15T10:27:22.064Z,2.92
2018-12-15T10:28:22.040Z,2.97
2018-12-15T10:29:22.015Z,2.95
2018-12-15T10:30:21.998Z,2.95
2018-12-15T10:31:21.971Z,2.95
2018-12-15T10:32:21.947Z,2.93
2018-12-15T10:33:21.923Z,2.96
2018-12-15T10:34:21.899Z,3.02
2018-12-15T10:35:21.880Z,2.97
2018-12-15T10:36:21.856Z,2.99
2018-12-15T10:37:21.832Z,2.99
2018-12-15T10:38:21.808Z,3.03
2018-12-15T10:39:21.781Z,3.03
2018-12-15T10:40:21.768Z,2.95
2018-12-15T10:41:21.738Z,2.96
2018-12-15T10:42:21.713Z,2.79
2018-12-15T10:43:21.700Z,2.79
2018-12-15T10:44:21.670Z,2.87
2018-12-15T10:45:21.646Z,2.90
2018-12-15T10:46:21.624Z,2.78
2018-12-15T10:47:21.600Z,2.87
2018-12-15T10:48:21.574Z,2.75
2018-12-15T10:49:21.554Z,2.78
2018-12-15T10:50:21.530Z,2.71
2018-12-15T10:51:21.514Z,2.72
2018-12-15T10:52:21.480Z,2.72
2018-12-15T10:53:21.474Z,2.78
2018-12-15T10:54:21.436Z,2.79
2018-12-15T10:55:21.414Z,2.89
2018-12-15T10:56:21.391Z,2.90
2018-12-15T10:57:21.365Z,2.93
2018-12-15T10:58:21.345Z,2.89
2018-12-15T10:59:21.320Z,2.92
2018-12-15T11:00:21.296Z,2.89
2018-12-15T11:01:21.277Z,2.87
2018-12-15T11:02:21.253Z,2.93
2018-12-15T11:03:21.229Z,2.99
2018-12-15T11:04:21.207Z,2.99
2018-12-15T11:05:21.180Z,3.00
2018-12-15T11:06:21.166Z,3.00
2018-12-15T11:07:21.133Z,3.06
2018-12-15T11:08:21.113Z,3.08
2018-12-15T11:09:21.090Z,3.06
2018-12-15T11:10:21.067Z,3.13
2018-12-15T11:11:21.144Z,3.20
2018-12-15T11:12:21.016Z,3.10
2018-12-15T11:13:20.996Z,3.21
2018-12-15T11:14:20.974Z,3.23
2018-12-15T11:15:20.944Z,3.21
2018-12-15T11:16:20.925Z,3.21
2018-12-15T11:17:20.904Z,3.20
2018-12-15T11:18:20.884Z,3.20
2018-12-15T11:19:20.858Z,3.26
2018-12-15T11:20:20.833Z,3.29
2018-12-15T11:21:20.810Z,3.17
2018-12-15T11:22:20.838Z,3.21
2018-12-15T11:23:20.766Z,3.17
2018-12-15T11:24:20.744Z,3.24
2018-12-15T11:25:20.721Z,3.20
2018-12-15T11:26:20.693Z,3.20
2018-12-15T11:27:20.674Z,3.20
2018-12-15T11:28:20.655Z,3.15
2018-12-15T11:29:20.624Z,3.13
2018-12-15T11:30:20.606Z,3.03
2018-12-15T11:31:20.576Z,3.06
2018-12-15T11:32:20.557Z,3.06
2018-12-15T11:33:20.534Z,3.03
2018-12-15T11:34:20.511Z,3.02
2018-12-15T11:35:20.489Z,3.03
2018-12-15T11:36:20.462Z,3.05
2018-12-15T11:37:20.445Z,3.05
2018-12-15T11:38:20.418Z,2.96
2018-12-15T11:39:20.398Z,2.97
2018-12-15T11:40:20.372Z,2.92
2018-12-15T11:41:20.348Z,2.97
2018-12-15T11:42:20.328Z,2.85
2018-12-15T11:43:20.299Z,2.93
2018-12-15T11:44:20.282Z,2.99
2018-12-15T11:45:20.254Z,2.97
2018-12-15T11:46:20.242Z,2.99
2018-12-15T11:47:20.220Z,3.05
2018-12-15T11:48:20.183Z,2.95
2018-12-15T11:49:20.164Z,2.97
2018-12-15T11:50:20.140Z,2.99
2018-12-15T11:51:20.116Z,2.93
2018-12-15T11:52:20.102Z,2.96
2018-12-15T11:53:20.076Z,2.84
2018-12-15T11:54:20.046Z,2.92
2018-12-15T11:55:20.024Z,2.90
2018-12-15T11:56:20.005Z,2.93
2018-12-15T11:57:19.976Z,2.84
2018-12-15T11:58:19.963Z,2.87
2018-12-15T11:59:19.929Z,2.85
2018-12-15T12:00:19.905Z,2.89
2018-12-15T12:01:19.883Z,2.96
2018-12-15T12:02:19.860Z,2.87
2018-12-15T12:03:19.838Z,2.84
2018-12-15T12:04:19.817Z,2.95
2018-12-15T12:05:19.794Z,2.99
2018-12-15T12:06:19.770Z,2.99
2018-12-15T12:07:19.746Z,2.90
2018-12-15T12:08:19.720Z,2.87
2018-12-15T12:09:19.699Z,2.97
2018-12-15T12:10:19.678Z,2.95
2018-12-15T12:11:19.652Z,2.95
2018-12-15T12:12:19.628Z,2.99
2018-12-15T12:13:19.608Z,3.00
2018-12-15T12:14:19.580Z,3.00
2018-12-15T12:15:19.562Z,3.05
2018-12-15T12:16:19.534Z,3.06
2018-12-15T12:17:19.516Z,3.10
2018-12-15T12:18:19.490Z,3.13
2018-12-15T12:19:19.468Z,3.08
2018-12-15T12:20:19.443Z,3.08
2018-12-15T12:21:19.418Z,3.13
2018-12-15T12:22:19.405Z,3.15
2018-12-15T12:23:19.370Z,3.06
2018-12-15T12:24:19.349Z,3.10
2018-12-15T12:25:19.334Z,3.03
2018-12-15T12:26:19.304Z,3.03
2018-12-15T12:27:19.287Z,3.10
2018-12-15T12:28:19.256Z,3.02
2018-12-15T12:29:19.240Z,3.03
2018-12-15T12:30:19.209Z,3.05
2018-12-15T12:31:19.191Z,3.00
2018-12-15T12:32:19.167Z,3.03
2018-12-15T12:33:19.144Z,2.87
2018-12-15T12:34:19.125Z,2.97
2018-12-15T12:35:19.094Z,2.95
2018-12-15T12:36:19.072Z,2.95
2018-12-15T12:37:19.052Z,2.95
2018-12-15T12:38:19.029Z,3.08
2018-12-15T12:39:19.005Z,3.05
2018-12-15T12:40:18.975Z,3.10
2018-12-15T12:41:18.961Z,3.05
2018-12-15T12:42:18.933Z,3.15
2018-12-15T12:43:18.911Z,3.14
2018-12-15T12:44:18.885Z,3.05
2018-12-15T12:45:18.861Z,3.08
2018-12-15T12:46:18.842Z,3.05
2018-12-15T12:47:18.819Z,3.03
2018-12-15T12:48:18.791Z,3.06
2018-12-15T12:49:18.770Z,3.08
2018-12-15T12:50:18.748Z,3.06
2018-12-15T12:51:18.723Z,3.08
2018-12-15T12:52:18.701Z,3.15
2018-12-15T12:53:18.681Z,3.08
2018-12-15T12:54:18.655Z,3.17
2018-12-15T12:55:18.632Z,3.17
2018-12-15T12:56:18.609Z,3.17
2018-12-15T12:57:18.589Z,3.02
2018-12-15T12:58:18.563Z,3.10
2018-12-15T12:59:18.537Z,3.02
2018-12-15T13:00:18.515Z,3.11
2018-12-15T13:01:18.491Z,3.02
2018-12-15T13:02:18.468Z,3.18
2018-12-15T13:03:18.445Z,3.21
2018-12-15T13:04:18.423Z,3.03
2018-12-15T13:05:18.401Z,3.10
2018-12-15T13:06:18.375Z,3.05
2018-12-15T13:07:18.349Z,3.13
2018-12-15T13:08:18.329Z,3.02
2018-12-15T13:09:18.309Z,3.03
2018-12-15T13:10:18.292Z,3.00
2018-12-15T13:11:18.259Z,3.00
2018-12-15T13:12:18.233Z,3.03
2018-12-15T13:13:18.229Z,3.02
2018-12-15T13:14:18.193Z,3.03
2018-12-15T13:15:18.183Z,3.03
2018-12-15T13:16:18.153Z,2.99
2018-12-15T13:17:18.120Z,3.03
2018-12-15T13:18:18.094Z,3.08